Time;durP1;ratioP1;P1;durP2;ratioP2;P2;SDS_P1;SDS_P2;PMS_P1;PMS_P2;Temp;Humidity;BMP_temperature;BMP_pressure;BME280_temperature;BME280_humidity;BME280_pressure;Samples;Min_cycle;Max_cycle;Signal;HPM_P1;HPM_P2
2023/09/20 00:02:19;;;;;;;12.95;4.03;;;;;;;;;;5064218;28;25154;-70
2023/09/20 00:04:47;;;;;;;11.70;2.72;;;;;;;;;;5066459;28;25098;-70
2023/09/20 00:07:13;;;;;;;8.35;2.67;;;;;;;;;;5044390;28;25061;-73
2023/09/20 00:09:40;;;;;;;11.98;3.00;;;;;;;;;;5067939;28;25079;-72
2023/09/20 00:12:06;;;;;;;11.13;3.55;;;;;;;;;;5068747;28;25116;-71
2023/09/20 00:14:32;;;;;;;11.43;3.50;;;;;;;;;;5063559;28;25065;-71
2023/09/20 00:17:00;;;;;;;9.23;3.28;;;;;;;;;;5048173;28;25082;-75
2023/09/20 00:19:26;;;;;;;12.02;2.90;;;;;;;;;;5067192;28;25124;-70
2023/09/20 00:21:52;;;;;;;10.60;3.55;;;;;;;;;;5066102;28;25128;-73
2023/09/20 00:24:18;;;;;;;11.93;3.28;;;;;;;;;;5070422;28;25067;-72
2023/09/20 00:26:44;;;;;;;7.20;3.58;;;;;;;;;;5067639;28;25056;-70
2023/09/20 00:29:10;;;;;;;11.93;2.72;;;;;;;;;;5049024;28;25066;-72
2023/09/20 00:31:37;;;;;;;13.82;3.58;;;;;;;;;;5068515;28;25142;-74
2023/09/20 00:34:04;;;;;;;6.82;2.53;;;;;;;;;;5066542;28;25171;-74
2023/09/20 00:36:33;;;;;;;10.43;4.05;;;;;;;;;;5076733;28;25047;-74
2023/09/20 00:39:00;;;;;;;10.68;3.70;;;;;;;;;;5069889;28;25132;-72
2023/09/20 00:41:27;;;;;;;11.57;3.88;;;;;;;;;;5045418;28;25095;-72
2023/09/20 00:43:53;;;;;;;14.63;4.22;;;;;;;;;;5062058;28;25062;-70
2023/09/20 00:46:20;;;;;;;11.60;3.63;;;;;;;;;;5049105;28;25099;-74
2023/09/20 00:48:47;;;;;;;7.80;3.53;;;;;;;;;;5075130;28;25052;-71
2023/09/20 00:51:15;;;;;;;13.63;4.28;;;;;;;;;;5067746;28;25146;-71
2023/09/20 00:53:41;;;;;;;9.25;3.95;;;;;;;;;;5054051;28;25068;-72
2023/09/20 00:56:09;;;;;;;12.95;3.55;;;;;;;;;;5067909;28;25082;-72
2023/09/20 00:58:35;;;;;;;10.02;3.33;;;;;;;;;;5065290;28;25114;-72
2023/09/20 01:01:03;;;;;;;13.27;3.22;;;;;;;;;;5069607;28;25093;-73
2023/09/20 01:03:32;;;;;;;12.20;3.63;;;;;;;;;;5063022;28;25066;-72
2023/09/20 01:05:59;;;;;;;8.23;3.10;;;;;;;;;;5065055;28;25065;-71
2023/09/20 01:08:25;;;;;;;7.80;3.30;;;;;;;;;;5065756;28;25087;-71
2023/09/20 01:10:52;;;;;;;7.57;3.13;;;;;;;;;;5046332;28;25050;-72
2023/09/20 01:13:21;;;;;;;10.40;3.58;;;;;;;;;;5066825;28;25059;-72
2023/09/20 01:15:48;;;;;;;12.13;4.00;;;;;;;;;;5043333;28;25063;-71
2023/09/20 01:18:14;;;;;;;12.80;3.03;;;;;;;;;;5064853;28;25053;-72
2023/09/20 01:20:40;;;;;;;11.45;3.30;;;;;;;;;;5066084;28;25089;-76
2023/09/20 01:23:07;;;;;;;6.63;2.58;;;;;;;;;;5065206;28;25053;-72
2023/09/20 01:25:43;;;;;;;7.55;3.05;;;;;;;;;;5068064;28;25093;-72
2023/09/20 01:28:10;;;;;;;12.35;3.33;;;;;;;;;;5076176;28;25060;-73
2023/09/20 01:30:37;;;;;;;8.90;3.13;;;;;;;;;;5075178;28;25078;-72
2023/09/20 01:33:06;;;;;;;11.32;3.45;;;;;;;;;;5061805;28;25141;-73
2023/09/20 01:35:32;;;;;;;13.55;3.92;;;;;;;;;;5047058;28;25172;-75
2023/09/20 01:37:59;;;;;;;17.88;3.92;;;;;;;;;;5064580;28;25052;-72
2023/09/20 01:40:26;;;;;;;8.32;3.63;;;;;;;;;;5064431;28;25147;-71
2023/09/20 01:42:58;;;;;;;11.80;3.58;;;;;;;;;;5045191;28;25145;-71
2023/09/20 01:45:24;;;;;;;9.00;3.38;;;;;;;;;;5040040;28;25129;-70
2023/09/20 01:47:54;;;;;;;14.23;3.72;;;;;;;;;;5061997;28;25093;-72
2023/09/20 01:50:24;;;;;;;9.02;3.10;;;;;;;;;;5066608;28;25098;-71
2023/09/20 01:52:51;;;;;;;11.13;3.55;;;;;;;;;;5055668;28;25126;-70
2023/09/20 01:55:20;;;;;;;12.27;3.38;;;;;;;;;;5059226;28;25068;-70
2023/09/20 01:57:47;;;;;;;8.82;3.25;;;;;;;;;;5062655;28;25072;-72
2023/09/20 02:00:16;;;;;;;8.70;3.00;;;;;;;;;;5061278;28;25074;-71
2023/09/20 02:02:46;;;;;;;14.02;3.67;;;;;;;;;;5046083;28;25055;-71
2023/09/20 02:05:14;;;;;;;12.20;3.63;;;;;;;;;;5064602;28;25074;-71
2023/09/20 02:07:40;;;;;;;11.10;3.50;;;;;;;;;;5064855;28;25064;-70
2023/09/20 02:10:08;;;;;;;9.05;3.08;;;;;;;;;;5040321;28;25095;-70
2023/09/20 02:12:36;;;;;;;10.95;3.17;;;;;;;;;;5063033;28;25141;-74
2023/09/20 02:15:07;;;;;;;15.40;3.33;;;;;;;;;;5065171;28;25129;-72
2023/09/20 02:17:34;;;;;;;11.43;3.25;;;;;;;;;;5063210;28;25051;-73
2023/09/20 02:20:08;;;;;;;7.82;3.05;;;;;;;;;;5056021;28;25082;-71
2023/09/20 02:22:35;;;;;;;7.95;3.15;;;;;;;;;;5065074;28;25052;-70
2023/09/20 02:25:03;;;;;;;8.23;3.35;;;;;;;;;;5070430;28;25065;-71
2023/09/20 02:27:30;;;;;;;12.05;3.03;;;;;;;;;;5064632;28;25092;-71
2023/09/20 02:29:57;;;;;;;7.80;3.08;;;;;;;;;;5069282;28;25053;-71
2023/09/20 02:32:27;;;;;;;12.07;3.35;;;;;;;;;;5066964;28;25080;-71
2023/09/20 02:34:53;;;;;;;6.15;2.80;;;;;;;;;;5064488;28;25138;-69
2023/09/20 02:37:19;;;;;;;7.18;2.78;;;;;;;;;;5059427;28;25118;-70
2023/09/20 02:39:45;;;;;;;8.80;2.85;;;;;;;;;;5043639;28;25099;-70
2023/09/20 02:42:11;;;;;;;8.85;2.90;;;;;;;;;;5048141;28;25070;-70
2023/09/20 02:44:38;;;;;;;11.30;3.20;;;;;;;;;;5063962;28;25077;-72
2023/09/20 02:47:04;;;;;;;9.35;3.40;;;;;;;;;;5062658;28;25058;-70
2023/09/20 02:49:32;;;;;;;8.75;2.88;;;;;;;;;;5069063;28;25117;-74
2023/09/20 02:51:58;;;;;;;6.68;3.00;;;;;;;;;;5046694;28;25092;-73
2023/09/20 02:54:25;;;;;;;9.52;3.28;;;;;;;;;;5073142;28;25046;-71
2023/09/20 02:56:52;;;;;;;8.90;2.97;;;;;;;;;;5071150;28;25172;-72
2023/09/20 02:59:20;;;;;;;10.52;3.85;;;;;;;;;;5076999;28;25115;-72
2023/09/20 03:01:49;;;;;;;9.05;3.50;;;;;;;;;;5070580;28;25068;-70
2023/09/20 03:04:15;;;;;;;15.40;3.28;;;;;;;;;;5059207;28;25071;-74
2023/09/20 03:06:44;;;;;;;8.55;3.55;;;;;;;;;;5070190;28;25070;-73
2023/09/20 03:09:10;;;;;;;8.88;3.25;;;;;;;;;;5074707;28;25053;-74
2023/09/20 03:11:37;;;;;;;12.00;3.10;;;;;;;;;;5049690;28;25070;-72
2023/09/20 03:14:10;;;;;;;15.93;3.00;;;;;;;;;;5051439;28;25108;-71
2023/09/20 03:16:36;;;;;;;7.90;3.10;;;;;;;;;;5063893;28;25064;-72
2023/09/20 03:19:03;;;;;;;9.57;3.28;;;;;;;;;;5069296;28;25040;-72
2023/09/20 03:21:29;;;;;;;11.15;3.42;;;;;;;;;;5067168;28;25073;-70
2023/09/20 03:23:56;;;;;;;10.50;2.90;;;;;;;;;;5066294;28;25055;-73
2023/09/20 03:26:22;;;;;;;8.13;2.67;;;;;;;;;;5068581;28;25089;-74
2023/09/20 03:28:48;;;;;;;7.63;3.10;;;;;;;;;;5075782;28;25105;-71
2023/09/20 03:31:15;;;;;;;10.40;3.55;;;;;;;;;;5062474;28;25052;-70
2023/09/20 03:33:42;;;;;;;9.10;3.17;;;;;;;;;;5072776;28;25054;-72
2023/09/20 03:36:15;;;;;;;6.25;2.63;;;;;;;;;;5070249;28;25063;-74
2023/09/20 03:38:41;;;;;;;10.35;2.97;;;;;;;;;;5063738;28;25054;-75
2023/09/20 03:41:08;;;;;;;10.02;3.15;;;;;;;;;;5068563;28;25141;-72
2023/09/20 03:43:34;;;;;;;8.38;2.42;;;;;;;;;;5063612;28;25079;-72
2023/09/20 03:46:01;;;;;;;15.50;3.47;;;;;;;;;;5071038;28;25072;-70
2023/09/20 03:48:27;;;;;;;8.27;3.13;;;;;;;;;;5070513;28;25044;-72
2023/09/20 03:50:53;;;;;;;9.88;3.00;;;;;;;;;;5070939;28;25078;-75
2023/09/20 03:53:19;;;;;;;7.95;2.83;;;;;;;;;;5070584;28;25066;-73
2023/09/20 03:55:49;;;;;;;7.82;3.03;;;;;;;;;;5069596;28;25067;-73
2023/09/20 03:58:15;;;;;;;10.20;2.70;;;;;;;;;;5047318;28;25081;-71
2023/09/20 04:00:44;;;;;;;8.90;3.00;;;;;;;;;;5065872;28;25065;-71
2023/09/20 04:03:12;;;;;;;7.72;3.08;;;;;;;;;;5067086;28;25061;-71
2023/09/20 04:05:39;;;;;;;14.55;3.33;;;;;;;;;;5064150;28;25052;-71
2023/09/20 04:08:06;;;;;;;6.90;3.00;;;;;;;;;;5065257;28;25060;-73
2023/09/20 04:10:33;;;;;;;9.00;3.55;;;;;;;;;;5062995;28;25076;-73
2023/09/20 04:12:59;;;;;;;10.45;3.00;;;;;;;;;;5062040;28;25051;-70
2023/09/20 04:15:26;;;;;;;15.32;3.47;;;;;;;;;;5048473;28;25044;-72
2023/09/20 04:17:52;;;;;;;9.18;3.08;;;;;;;;;;5068666;28;25138;-70
2023/09/20 04:20:21;;;;;;;7.15;2.80;;;;;;;;;;5065180;28;25161;-70
2023/09/20 04:22:49;;;;;;;11.82;3.22;;;;;;;;;;5064715;28;25072;-72
2023/09/20 04:25:16;;;;;;;7.68;2.80;;;;;;;;;;5081631;28;25061;-72
2023/09/20 04:27:43;;;;;;;13.98;2.67;;;;;;;;;;5069214;28;25102;-72
2023/09/20 04:30:09;;;;;;;9.73;2.63;;;;;;;;;;5084400;28;25186;-70
2023/09/20 04:32:36;;;;;;;8.73;2.80;;;;;;;;;;5088472;28;25099;-71
2023/09/20 04:35:02;;;;;;;8.35;2.70;;;;;;;;;;5060126;28;25078;-71
2023/09/20 04:37:29;;;;;;;5.43;2.42;;;;;;;;;;5075750;28;25088;-71
2023/09/20 04:39:55;;;;;;;9.57;2.60;;;;;;;;;;5066964;28;25102;-71
2023/09/20 04:42:21;;;;;;;8.57;3.17;;;;;;;;;;5053454;28;25175;-69
2023/09/20 04:44:49;;;;;;;7.55;2.90;;;;;;;;;;5067540;28;25145;-72
2023/09/20 04:47:16;;;;;;;5.40;2.80;;;;;;;;;;5069566;28;25061;-73
2023/09/20 04:49:44;;;;;;;8.55;2.63;;;;;;;;;;5066837;28;25142;-70
2023/09/20 04:52:11;;;;;;;8.50;3.08;;;;;;;;;;5066744;28;25124;-71
2023/09/20 04:54:37;;;;;;;7.50;3.15;;;;;;;;;;5044510;28;25135;-69
2023/09/20 04:57:04;;;;;;;8.82;2.80;;;;;;;;;;5048020;28;25054;-70
2023/09/20 04:59:31;;;;;;;6.45;3.03;;;;;;;;;;5063584;28;25075;-69
2023/09/20 05:01:57;;;;;;;6.78;2.78;;;;;;;;;;5067368;28;25064;-72
2023/09/20 05:04:24;;;;;;;10.10;3.20;;;;;;;;;;5051342;28;25143;-72
2023/09/20 05:06:52;;;;;;;4.25;2.17;;;;;;;;;;5064556;28;25129;-71
2023/09/20 05:09:18;;;;;;;7.60;3.70;;;;;;;;;;5067488;28;25052;-71
2023/09/20 05:11:45;;;;;;;17.00;3.50;;;;;;;;;;5066034;28;25048;-71
2023/09/20 05:14:11;;;;;;;9.60;2.88;;;;;;;;;;5067151;28;25080;-74
2023/09/20 05:16:37;;;;;;;8.75;3.28;;;;;;;;;;5060887;28;25079;-70
2023/09/20 05:19:03;;;;;;;9.18;2.80;;;;;;;;;;5058589;28;25066;-72
2023/09/20 05:21:29;;;;;;;11.85;3.10;;;;;;;;;;5061742;28;25049;-70
2023/09/20 05:23:55;;;;;;;6.78;2.65;;;;;;;;;;5062519;28;25074;-72
2023/09/20 05:26:23;;;;;;;11.43;3.80;;;;;;;;;;5062395;28;25058;-69
2023/09/20 05:28:48;;;;;;;7.25;2.63;;;;;;;;;;5047013;28;25044;-73
2023/09/20 05:31:15;;;;;;;9.15;3.53;;;;;;;;;;5062070;28;25128;-72
2023/09/20 05:33:42;;;;;;;7.88;2.90;;;;;;;;;;5065429;28;25082;-73
2023/09/20 05:36:08;;;;;;;6.60;3.08;;;;;;;;;;5067922;28;25055;-73
2023/09/20 05:38:34;;;;;;;11.80;3.25;;;;;;;;;;5067516;28;25080;-75
2023/09/20 05:41:00;;;;;;;10.43;3.28;;;;;;;;;;5066702;28;25073;-73
2023/09/20 05:43:28;;;;;;;8.40;2.70;;;;;;;;;;5063074;28;25065;-73
2023/09/20 05:45:54;;;;;;;5.63;2.72;;;;;;;;;;5063172;28;25063;-73
2023/09/20 05:48:20;;;;;;;6.40;2.75;;;;;;;;;;5043507;28;25050;-74
2023/09/20 05:50:47;;;;;;;6.90;2.55;;;;;;;;;;5063405;28;25063;-71
2023/09/20 05:53:14;;;;;;;8.27;2.78;;;;;;;;;;5067723;28;25044;-75
2023/09/20 05:55:40;;;;;;;9.65;2.72;;;;;;;;;;5064639;28;25064;-73
2023/09/20 05:58:06;;;;;;;8.65;2.97;;;;;;;;;;5062678;28;25051;-75
2023/09/20 06:00:35;;;;;;;7.00;2.70;;;;;;;;;;5061947;28;25053;-73
2023/09/20 06:03:03;;;;;;;7.15;2.63;;;;;;;;;;5064892;28;25076;-72
2023/09/20 06:05:31;;;;;;;5.03;2.55;;;;;;;;;;5046941;28;25130;-72
2023/09/20 06:07:57;;;;;;;6.72;2.50;;;;;;;;;;5064968;28;25076;-71
2023/09/20 06:10:24;;;;;;;10.02;3.22;;;;;;;;;;5058551;28;25063;-72
2023/09/20 06:12:50;;;;;;;11.13;2.83;;;;;;;;;;5064568;28;25123;-72
2023/09/20 06:15:16;;;;;;;8.55;2.70;;;;;;;;;;5064575;28;25082;-71
2023/09/20 06:17:43;;;;;;;7.05;2.55;;;;;;;;;;5065318;28;25056;-70
2023/09/20 06:20:12;;;;;;;9.63;2.55;;;;;;;;;;5064474;28;25080;-68
2023/09/20 06:22:39;;;;;;;7.00;2.88;;;;;;;;;;5060155;28;24847;-71
2023/09/20 06:25:08;;;;;;;8.20;3.03;;;;;;;;;;5045219;28;25059;-71
2023/09/20 06:27:34;;;;;;;4.40;2.42;;;;;;;;;;5065010;28;25048;-73
2023/09/20 06:30:12;;;;;;;6.50;2.83;;;;;;;;;;5063619;28;25079;-71
2023/09/20 06:32:38;;;;;;;7.55;2.90;;;;;;;;;;5064903;28;25072;-69
2023/09/20 06:35:05;;;;;;;10.63;3.20;;;;;;;;;;5063688;28;25067;-69
2023/09/20 06:37:31;;;;;;;6.45;2.88;;;;;;;;;;5061890;28;25056;-71
2023/09/20 06:39:57;;;;;;;6.07;2.83;;;;;;;;;;5044433;28;25075;-70
2023/09/20 06:42:29;;;;;;;6.10;2.70;;;;;;;;;;5063340;28;25110;-72
2023/09/20 06:44:55;;;;;;;;;;;;;;;;;;5055545;28;25155;-72
2023/09/20 06:47:22;;;;;;;10.25;2.90;;;;;;;;;;5058537;28;24161;-68
2023/09/20 06:49:48;;;;;;;4.88;2.88;;;;;;;;;;5058424;28;25137;-70
2023/09/20 06:52:14;;;;;;;7.07;2.50;;;;;;;;;;5062579;28;25065;-71
2023/09/20 06:54:40;;;;;;;8.30;3.05;;;;;;;;;;5061461;28;25051;-72
2023/09/20 06:57:06;;;;;;;8.93;2.95;;;;;;;;;;5036660;28;25061;-71
2023/09/20 06:59:33;;;;;;;6.85;2.60;;;;;;;;;;5064017;28;25161;-72
2023/09/20 07:01:59;;;;;;;6.85;2.85;;;;;;;;;;5046521;28;25077;-73
2023/09/20 07:04:26;;;;;;;3.10;2.38;;;;;;;;;;5057384;28;25065;-73
2023/09/20 07:06:58;;;;;;;4.13;2.42;;;;;;;;;;5058176;28;25046;-70
2023/09/20 07:09:25;;;;;;;8.45;2.70;;;;;;;;;;5063391;28;25085;-71
2023/09/20 07:11:51;;;;;;;5.60;2.80;;;;;;;;;;5066132;28;25052;-72
2023/09/20 07:14:21;;;;;;;6.60;2.72;;;;;;;;;;5060065;28;25129;-71
2023/09/20 07:16:51;;;;;;;7.03;2.95;;;;;;;;;;5063471;28;25164;-71
2023/09/20 07:19:18;;;;;;;6.43;2.70;;;;;;;;;;5046848;28;25095;-72
2023/09/20 07:21:45;;;;;;;8.55;2.58;;;;;;;;;;5062993;28;25052;-72
2023/09/20 07:24:12;;;;;;;9.13;2.63;;;;;;;;;;5064413;28;25112;-73
2023/09/20 07:26:39;;;;;;;7.50;2.65;;;;;;;;;;5066291;28;25065;-71
2023/09/20 07:29:05;;;;;;;5.65;2.83;;;;;;;;;;5071686;28;25079;-71
2023/09/20 07:31:36;;;;;;;7.55;3.05;;;;;;;;;;5081634;28;25140;-73
2023/09/20 07:34:04;;;;;;;6.68;2.63;;;;;;;;;;5077397;28;25130;-72
2023/09/20 07:36:33;;;;;;;9.82;2.90;;;;;;;;;;5052767;28;25058;-70
2023/09/20 07:39:00;;;;;;;5.80;2.85;;;;;;;;;;5060304;28;25064;-75
2023/09/20 07:41:26;;;;;;;10.63;3.13;;;;;;;;;;5066803;28;25066;-73
2023/09/20 07:43:54;;;;;;;8.00;3.22;;;;;;;;;;5082648;28;25087;-71
2023/09/20 07:46:23;;;;;;;9.45;2.90;;;;;;;;;;5071560;28;25096;-71
2023/09/20 07:48:50;;;;;;;5.03;2.83;;;;;;;;;;5065690;28;25161;-73
2023/09/20 07:51:20;;;;;;;9.25;3.00;;;;;;;;;;5068678;28;25131;-72
2023/09/20 07:53:49;;;;;;;16.67;3.85;;;;;;;;;;5039538;28;25080;-71
2023/09/20 07:56:15;;;;;;;8.75;2.80;;;;;;;;;;5047140;28;25049;-71
2023/09/20 07:58:41;;;;;;;7.38;2.67;;;;;;;;;;5044671;28;25142;-71
2023/09/20 08:01:12;;;;;;;4.43;3.00;;;;;;;;;;5045319;28;25081;-71
2023/09/20 08:03:38;;;;;;;8.40;3.47;;;;;;;;;;5051774;28;25051;-70
2023/09/20 08:06:09;;;;;;;9.23;2.97;;;;;;;;;;5045647;28;25067;-73
2023/09/20 08:08:35;;;;;;;5.95;2.90;;;;;;;;;;5055648;28;25060;-77
2023/09/20 08:11:01;;;;;;;6.90;2.83;;;;;;;;;;5045230;28;25094;-73
2023/09/20 08:13:27;;;;;;;7.05;2.70;;;;;;;;;;5070982;28;25087;-76
2023/09/20 08:15:53;;;;;;;8.57;2.92;;;;;;;;;;5052379;28;25084;-71
2023/09/20 08:21:04;;;;;;;13.13;3.28;;;;;;;;;;5069113;28;25070;-74
2023/09/20 09:01:59;;;;;;;9.15;3.22;;;;;;;;;;5061117;28;25056;-75
2023/09/20 09:04:25;;;;;;;5.88;3.30;;;;;;;;;;5039271;28;25061;-73
2023/09/20 09:06:51;;;;;;;8.18;2.80;;;;;;;;;;5058262;28;25151;-73
2023/09/20 09:09:17;;;;;;;7.32;3.30;;;;;;;;;;5062145;28;25054;-72
2023/09/20 09:11:47;;;;;;;8.18;3.03;;;;;;;;;;5057463;28;25076;-72
2023/09/20 09:14:16;;;;;;;6.32;3.28;;;;;;;;;;5061479;28;25075;-72
2023/09/20 09:16:42;;;;;;;6.30;2.92;;;;;;;;;;5061884;28;25059;-72
2023/09/20 09:19:09;;;;;;;4.55;2.60;;;;;;;;;;5062503;28;25066;-75
2023/09/20 09:21:35;;;;;;;7.15;2.97;;;;;;;;;;5045591;28;25048;-74
2023/09/20 09:24:01;;;;;;;9.50;2.60;;;;;;;;;;5062276;28;25076;-71
2023/09/20 09:26:27;;;;;;;8.55;2.90;;;;;;;;;;5045648;28;25083;-73
2023/09/20 09:28:53;;;;;;;10.57;3.13;;;;;;;;;;5062287;28;25067;-73
2023/09/20 09:31:19;;;;;;;6.63;2.65;;;;;;;;;;5065192;28;25101;-74
2023/09/20 09:33:46;;;;;;;9.98;3.10;;;;;;;;;;5057040;28;25086;-73
2023/09/20 09:36:13;;;;;;;6.97;3.03;;;;;;;;;;5058233;28;25047;-74
2023/09/20 09:38:39;;;;;;;11.07;4.07;;;;;;;;;;5048553;28;25060;-73
2023/09/20 09:41:08;;;;;;;4.63;2.95;;;;;;;;;;5057861;28;25136;-74
2023/09/20 09:43:35;;;;;;;6.90;3.08;;;;;;;;;;5049946;28;25094;-73
2023/09/20 09:46:06;;;;;;;5.07;2.28;;;;;;;;;;5054777;28;25071;-74
2023/09/20 09:48:39;;;;;;;6.68;2.47;;;;;;;;;;5062080;28;25084;-73
2023/09/20 09:51:09;;;;;;;10.30;2.65;;;;;;;;;;5059299;28;25101;-74
2023/09/20 09:53:39;;;;;;;7.93;2.53;;;;;;;;;;5064656;28;25085;-74
2023/09/20 09:56:05;;;;;;;4.70;2.60;;;;;;;;;;5058017;28;25067;-72
2023/09/20 09:58:32;;;;;;;4.80;2.47;;;;;;;;;;5060305;28;25064;-72
2023/09/20 10:00:58;;;;;;;8.30;2.60;;;;;;;;;;5041611;28;25134;-71
2023/09/20 10:03:24;;;;;;;9.20;2.90;;;;;;;;;;5041295;28;25111;-69
2023/09/20 10:05:52;;;;;;;6.72;2.80;;;;;;;;;;5063454;28;25088;-70
2023/09/20 10:08:21;;;;;;;3.88;2.53;;;;;;;;;;5060834;28;25126;-72
2023/09/20 10:10:47;;;;;;;4.75;2.15;;;;;;;;;;5048701;28;25052;-71
2023/09/20 10:13:16;;;;;;;5.13;2.83;;;;;;;;;;5057625;28;25073;-72
2023/09/20 10:15:43;;;;;;;6.05;2.75;;;;;;;;;;5061340;28;25100;-70
2023/09/20 10:18:09;;;;;;;6.68;2.63;;;;;;;;;;5045561;28;25138;-72
2023/09/20 10:20:54;;;;;;;3.88;2.35;;;;;;;;;;5059547;28;25068;-72
2023/09/20 10:23:21;;;;;;;6.43;2.17;;;;;;;;;;5065917;28;25053;-75
2023/09/20 10:25:48;;;;;;;4.90;2.20;;;;;;;;;;5054909;28;25182;-74
2023/09/20 10:28:17;;;;;;;7.03;2.10;;;;;;;;;;5075946;28;25095;-69
2023/09/20 10:31:02;;;;;;;6.28;2.53;;;;;;;;;;5079693;28;25072;-70
2023/09/20 10:33:48;;;;;;;3.40;2.30;;;;;;;;;;5070200;28;25069;-70
2023/09/20 10:36:20;;;;;;;5.13;2.38;;;;;;;;;;5067850;28;25058;-72
2023/09/20 10:38:47;;;;;;;5.90;2.42;;;;;;;;;;5064277;28;25136;-72
2023/09/20 10:41:13;;;;;;;7.05;2.92;;;;;;;;;;5059497;28;25067;-70
2023/09/20 10:43:41;;;;;;;4.50;2.63;;;;;;;;;;5046337;28;25160;-68
2023/09/20 10:46:17;;;;;;;8.52;2.75;;;;;;;;;;5058760;28;25055;-72
2023/09/20 10:48:49;;;;;;;4.05;2.47;;;;;;;;;;5062470;28;25148;-72
2023/09/20 10:51:34;;;;;;;3.72;2.30;;;;;;;;;;5060772;28;25053;-72
2023/09/20 10:54:02;;;;;;;7.40;2.55;;;;;;;;;;5061767;28;25073;-71
2023/09/20 10:56:44;;;;;;;8.77;2.90;;;;;;;;;;5070623;28;25073;-73
2023/09/20 10:59:16;;;;;;;4.50;2.75;;;;;;;;;;5063698;28;25066;-71
2023/09/20 11:01:48;;;;;;;6.45;2.80;;;;;;;;;;5082674;28;25062;-72
2023/09/20 11:04:14;;;;;;;5.35;2.85;;;;;;;;;;5075050;28;25057;-70
2023/09/20 11:06:43;;;;;;;8.55;2.78;;;;;;;;;;5054522;28;25097;-71
2023/09/20 11:09:11;;;;;;;6.68;2.05;;;;;;;;;;5052392;28;25068;-71
2023/09/20 11:11:37;;;;;;;11.40;3.33;;;;;;;;;;5068040;28;25040;-71
2023/09/20 11:14:04;;;;;;;7.97;3.05;;;;;;;;;;5068208;28;25068;-70
2023/09/20 11:16:30;;;;;;;7.32;3.15;;;;;;;;;;5065605;28;25053;-71
2023/09/20 11:18:56;;;;;;;5.03;2.90;;;;;;;;;;5045224;28;25055;-76
2023/09/20 11:21:24;;;;;;;8.02;3.28;;;;;;;;;;5074330;28;25113;-72
2023/09/20 11:23:50;;;;;;;4.15;2.67;;;;;;;;;;5060518;28;25075;-70
2023/09/20 11:26:36;;;;;;;9.77;3.03;;;;;;;;;;5066111;28;25067;-70
2023/09/20 11:29:04;;;;;;;6.85;3.45;;;;;;;;;;5059560;28;25101;-72
2023/09/20 11:31:32;;;;;;;9.43;3.42;;;;;;;;;;5071436;28;25053;-70
2023/09/20 11:34:03;;;;;;;3.60;2.58;;;;;;;;;;5071097;28;25071;-75
2023/09/20 11:36:29;;;;;;;6.10;2.95;;;;;;;;;;5072703;28;25065;-75
2023/09/20 11:38:55;;;;;;;6.50;2.63;;;;;;;;;;5076084;28;25064;-74
2023/09/20 11:41:23;;;;;;;8.50;3.30;;;;;;;;;;5080537;28;25068;-73
2023/09/20 11:43:53;;;;;;;5.30;2.75;;;;;;;;;;5080675;28;25060;-75
2023/09/20 11:46:19;;;;;;;6.03;2.78;;;;;;;;;;5076389;28;25159;-74
2023/09/20 11:48:45;;;;;;;7.40;2.92;;;;;;;;;;5074951;28;25072;-75
2023/09/20 11:51:13;;;;;;;5.70;3.25;;;;;;;;;;5070298;28;25149;-72
2023/09/20 11:53:42;;;;;;;6.82;2.22;;;;;;;;;;5071979;28;25157;-73
2023/09/20 11:56:08;;;;;;;8.35;2.92;;;;;;;;;;5057669;28;25165;-74
2023/09/20 11:58:36;;;;;;;3.40;2.38;;;;;;;;;;5068748;28;25068;-75
2023/09/20 12:01:05;;;;;;;7.72;2.63;;;;;;;;;;5053684;28;25097;-73
2023/09/20 12:03:31;;;;;;;6.03;2.92;;;;;;;;;;5076044;28;25168;-74
2023/09/20 12:05:57;;;;;;;3.72;1.98;;;;;;;;;;5076910;28;25158;-73
2023/09/20 12:08:30;;;;;;;6.65;2.78;;;;;;;;;;5077618;28;25048;-75
2023/09/20 12:10:56;;;;;;;6.15;2.47;;;;;;;;;;5067471;28;25058;-71
2023/09/20 12:13:22;;;;;;;5.07;2.78;;;;;;;;;;5072658;28;25055;-71
2023/09/20 12:15:48;;;;;;;5.57;2.35;;;;;;;;;;5066903;28;25076;-74
2023/09/20 12:18:14;;;;;;;5.47;3.08;;;;;;;;;;5068538;28;25139;-74
2023/09/20 12:20:44;;;;;;;7.60;3.15;;;;;;;;;;5070614;28;25081;-71
2023/09/20 12:23:12;;;;;;;11.80;3.22;;;;;;;;;;5065104;28;25061;-72
2023/09/20 12:25:40;;;;;;;5.03;2.25;;;;;;;;;;5062038;28;25091;-74
2023/09/20 12:28:06;;;;;;;4.45;2.75;;;;;;;;;;5062631;28;25051;-72
2023/09/20 12:30:32;;;;;;;6.65;2.85;;;;;;;;;;5062086;28;25090;-72
2023/09/20 12:32:58;;;;;;;4.63;2.50;;;;;;;;;;5062755;28;25071;-72
2023/09/20 12:35:25;;;;;;;6.47;3.50;;;;;;;;;;5060908;28;25108;-73
2023/09/20 12:37:52;;;;;;;4.40;2.50;;;;;;;;;;5050620;28;25104;-71
2023/09/20 12:40:21;;;;;;;5.13;2.50;;;;;;;;;;5061637;28;25124;-73
2023/09/20 12:42:48;;;;;;;5.97;2.50;;;;;;;;;;5068052;28;25066;-75
2023/09/20 12:45:14;;;;;;;7.22;3.10;;;;;;;;;;5067672;28;25152;-73
2023/09/20 12:47:42;;;;;;;7.00;2.72;;;;;;;;;;5073966;28;25096;-73
2023/09/20 12:50:12;;;;;;;10.20;3.00;;;;;;;;;;5052274;28;25062;-74
2023/09/20 12:52:38;;;;;;;4.85;2.60;;;;;;;;;;5066017;28;25130;-73
2023/09/20 12:55:04;;;;;;;7.28;2.50;;;;;;;;;;5052311;28;25097;-72
2023/09/20 12:57:30;;;;;;;5.38;2.67;;;;;;;;;;5052466;28;25159;-73
2023/09/20 12:59:57;;;;;;;6.20;2.85;;;;;;;;;;5066704;28;25067;-73
2023/09/20 13:02:27;;;;;;;5.80;2.65;;;;;;;;;;5044218;28;25068;-73
2023/09/20 13:04:55;;;;;;;5.88;2.78;;;;;;;;;;5060904;28;25082;-72
2023/09/20 13:07:21;;;;;;;7.03;3.30;;;;;;;;;;5060642;28;25065;-73
2023/09/20 13:09:48;;;;;;;7.03;2.15;;;;;;;;;;5063381;28;25056;-71
2023/09/20 13:12:15;;;;;;;8.52;3.30;;;;;;;;;;5049720;28;25052;-73
2023/09/20 13:14:42;;;;;;;6.35;2.17;;;;;;;;;;5058603;28;25054;-75
2023/09/20 13:17:09;;;;;;;3.42;2.38;;;;;;;;;;5046652;28;25099;-77
2023/09/20 13:19:35;;;;;;;4.60;2.28;;;;;;;;;;5064852;28;25074;-78
2023/09/20 13:22:01;;;;;;;4.50;2.05;;;;;;;;;;5040873;28;25055;-74
2023/09/20 13:24:27;;;;;;;2.90;2.25;;;;;;;;;;5067007;28;25071;-73
2023/09/20 13:26:53;;;;;;;6.35;2.90;;;;;;;;;;5064844;28;25071;-73
2023/09/20 13:29:19;;;;;;;3.70;2.20;;;;;;;;;;5061243;28;25083;-72
2023/09/20 13:31:46;;;;;;;5.90;2.25;;;;;;;;;;5061758;28;25161;-77
2023/09/20 13:34:15;;;;;;;5.85;2.45;;;;;;;;;;5063310;28;25149;-73
2023/09/20 13:36:44;;;;;;;6.35;2.70;;;;;;;;;;5045831;28;25163;-70
2023/09/20 13:39:10;;;;;;;6.00;2.50;;;;;;;;;;5058694;28;25070;-72
2023/09/20 13:41:36;;;;;;;5.65;2.50;;;;;;;;;;5061793;28;25061;-72
2023/09/20 13:44:03;;;;;;;6.22;2.28;;;;;;;;;;5044629;28;25134;-72
2023/09/20 13:46:29;;;;;;;6.20;2.75;;;;;;;;;;5060923;28;25058;-74
2023/09/20 13:48:55;;;;;;;3.58;2.22;;;;;;;;;;5062100;28;25053;-73
2023/09/20 13:51:21;;;;;;;3.08;2.42;;;;;;;;;;5062771;28;25078;-72
2023/09/20 13:53:50;;;;;;;4.72;1.92;;;;;;;;;;5069557;28;25076;-74
2023/09/20 13:56:19;;;;;;;3.90;1.95;;;;;;;;;;5062965;28;25082;-71
2023/09/20 13:58:45;;;;;;;8.52;1.90;;;;;;;;;;5061547;28;25092;-72
2023/09/20 14:01:11;;;;;;;7.78;1.75;;;;;;;;;;5060725;28;25069;-72
2023/09/20 14:03:38;;;;;;;3.65;1.48;;;;;;;;;;5058370;28;25053;-72
2023/09/20 14:06:07;;;;;;;4.85;2.22;;;;;;;;;;5059525;28;25105;-74
2023/09/20 14:08:33;;;;;;;5.13;2.83;;;;;;;;;;5062890;28;25055;-70
2023/09/20 14:10:59;;;;;;;7.05;2.00;;;;;;;;;;5038738;28;25071;-70
2023/09/20 14:13:26;;;;;;;5.13;1.63;;;;;;;;;;5062141;28;25129;-73
2023/09/20 14:15:54;;;;;;;3.22;1.83;;;;;;;;;;5062472;28;25062;-72
2023/09/20 14:18:20;;;;;;;4.20;1.65;;;;;;;;;;5060574;28;25499;-73
2023/09/20 14:20:50;;;;;;;6.00;1.75;;;;;;;;;;5063189;28;25077;-72
2023/09/20 14:23:16;;;;;;;7.63;2.22;;;;;;;;;;5061012;28;25044;-71
2023/09/20 14:25:42;;;;;;;4.55;2.17;;;;;;;;;;5056734;28;25056;-71
2023/09/20 14:28:08;;;;;;;7.28;2.20;;;;;;;;;;5061278;28;25140;-71
2023/09/20 14:30:36;;;;;;;5.22;1.50;;;;;;;;;;5058758;28;25068;-69
2023/09/20 14:33:02;;;;;;;4.15;1.73;;;;;;;;;;5039111;28;25101;-74
2023/09/20 14:35:28;;;;;;;5.32;1.80;;;;;;;;;;5056782;28;25102;-72
2023/09/20 14:37:54;;;;;;;2.88;1.77;;;;;;;;;;5060328;28;25050;-71
2023/09/20 14:40:24;;;;;;;4.38;1.38;;;;;;;;;;5060921;28;25127;-70
2023/09/20 14:42:51;;;;;;;4.82;1.95;;;;;;;;;;5060417;28;25065;-71
2023/09/20 14:45:22;;;;;;;5.25;2.22;;;;;;;;;;5063895;28;25049;-69
2023/09/20 14:47:51;;;;;;;4.43;1.98;;;;;;;;;;5064882;28;25106;-72
2023/09/20 14:50:21;;;;;;;6.07;2.00;;;;;;;;;;5067835;28;25087;-72
2023/09/20 14:52:47;;;;;;;5.68;2.05;;;;;;;;;;5063323;28;25067;-74
2023/09/20 14:55:15;;;;;;;6.00;2.47;;;;;;;;;;5061907;28;25087;-72
2023/09/20 14:57:45;;;;;;;5.70;1.75;;;;;;;;;;5062289;28;25110;-71
2023/09/20 15:00:18;;;;;;;8.48;2.33;;;;;;;;;;5062997;28;25092;-72
2023/09/20 15:02:45;;;;;;;2.72;1.55;;;;;;;;;;5063037;28;25056;-72
2023/09/20 15:05:13;;;;;;;5.65;1.92;;;;;;;;;;5068702;28;25155;-71
2023/09/20 15:07:39;;;;;;;5.70;2.22;;;;;;;;;;5047882;28;25053;-71
2023/09/20 15:10:10;;;;;;;5.25;1.73;;;;;;;;;;5066928;28;25154;-72
2023/09/20 15:12:40;;;;;;;6.25;1.70;;;;;;;;;;5063880;28;25086;-72
2023/09/20 15:15:06;;;;;;;5.53;2.10;;;;;;;;;;5065446;28;25084;-72
2023/09/20 15:17:32;;;;;;;6.10;2.15;;;;;;;;;;5060132;28;25054;-72
2023/09/20 15:19:58;;;;;;;4.22;1.65;;;;;;;;;;5073880;28;25164;-73
2023/09/20 15:22:29;;;;;;;7.15;2.33;;;;;;;;;;5065669;28;25090;-77
2023/09/20 15:24:56;;;;;;;3.53;1.60;;;;;;;;;;5066573;28;25067;-74